sensor_id;sensor_type;location;lat;lon;timestamp;pressure;altitude;pressure_sealevel;temperature;humidity
12987;BME280;58897;51.960;5.582;2023-08-01T00:00:11;99714.50;;;16.32;100.00
12987;BME280;58897;51.960;5.582;2023-08-01T00:02:38;99709.91;;;16.33;100.00
12987;BME280;58897;51.960;5.582;2023-08-01T00:05:05;99704.59;;;16.20;100.00
12987;BME280;58897;51.960;5.582;2023-08-01T00:07:32;99700.53;;;16.11;100.00
12987;BME280;58897;51.960;5.582;2023-08-01T00:10:03;99704.44;;;16.15;100.00
12987;BME280;58897;51.960;5.582;2023-08-01T00:12:30;99700.88;;;16.14;100.00
12987;BME280;58897;51.960;5.582;2023-08-01T00:14:57;99696.97;;;16.10;100.00
12987;BME280;58897;51.960;5.582;2023-08-01T00:17:24;99693.41;;;16.10;100.00
12987;BME280;58897;51.960;5.582;2023-08-01T00:19:51;99689.41;;;16.12;100.00
12987;BME280;58897;51.960;5.582;2023-08-01T00:22:17;99680.63;;;16.10;100.00
12987;BME280;58897;51.960;5.582;2023-08-01T00:24:44;99674.94;;;16.12;100.00
12987;BME280;58897;51.960;5.582;2023-08-01T00:27:11;99667.22;;;16.08;100.00
12987;BME280;58897;51.960;5.582;2023-08-01T00:29:37;99664.34;;;16.03;100.00
12987;BME280;58897;51.960;5.582;2023-08-01T00:32:04;99660.50;;;16.11;100.00
12987;BME280;58897;51.960;5.582;2023-08-01T00:34:31;99661.09;;;16.13;100.00
12987;BME280;58897;51.960;5.582;2023-08-01T00:36:58;99653.97;;;16.12;100.00
12987;BME280;58897;51.960;5.582;2023-08-01T00:39:25;99647.94;;;16.10;100.00
12987;BME280;58897;51.960;5.582;2023-08-01T00:41:51;99653.22;;;16.05;100.00
12987;BME280;58897;51.960;5.582;2023-08-01T00:44:18;99655.34;;;16.03;100.00
12987;BME280;58897;51.960;5.582;2023-08-01T00:46:45;99650.34;;;16.00;100.00
12987;BME280;58897;51.960;5.582;2023-08-01T00:49:12;99648.84;;;16.04;100.00
12987;BME280;58897;51.960;5.582;2023-08-01T00:51:39;99644.66;;;16.01;100.00
12987;BME280;58897;51.960;5.582;2023-08-01T00:54:07;99635.22;;;16.04;100.00
12987;BME280;58897;51.960;5.582;2023-08-01T00:56:33;99642.19;;;16.00;100.00
12987;BME280;58897;51.960;5.582;2023-08-01T00:59:00;99640.31;;;16.00;100.00
12987;BME280;58897;51.960;5.582;2023-08-01T01:01:27;99641.34;;;15.99;100.00
12987;BME280;58897;51.960;5.582;2023-08-01T01:03:55;99637.72;;;16.05;100.00
12987;BME280;58897;51.960;5.582;2023-08-01T01:06:27;99640.22;;;16.07;100.00
12987;BME280;58897;51.960;5.582;2023-08-01T01:08:55;99638.47;;;16.13;100.00
12987;BME280;58897;51.960;5.582;2023-08-01T01:11:22;99635.59;;;16.08;100.00
12987;BME280;58897;51.960;5.582;2023-08-01T01:13:49;99634.38;;;16.03;100.00
12987;BME280;58897;51.960;5.582;2023-08-01T01:16:20;99642.53;;;16.03;100.00
12987;BME280;58897;51.960;5.582;2023-08-01T01:18:47;99638.31;;;16.08;100.00
12987;BME280;58897;51.960;5.582;2023-08-01T01:21:13;99636.06;;;16.04;100.00
12987;BME280;58897;51.960;5.582;2023-08-01T01:23:41;99633.19;;;15.99;100.00
12987;BME280;58897;51.960;5.582;2023-08-01T01:26:09;99632.50;;;16.04;100.00
12987;BME280;58897;51.960;5.582;2023-08-01T01:28:37;99635.66;;;16.01;100.00
12987;BME280;58897;51.960;5.582;2023-08-01T01:31:04;99633.72;;;15.90;100.00
12987;BME280;58897;51.960;5.582;2023-08-01T01:33:31;99637.34;;;15.84;100.00
12987;BME280;58897;51.960;5.582;2023-08-01T01:36:00;99632.34;;;15.81;100.00
12987;BME280;58897;51.960;5.582;2023-08-01T01:38:27;99634.06;;;15.75;100.00
12987;BME280;58897;51.960;5.582;2023-08-01T01:40:54;99635.91;;;15.81;100.00
12987;BME280;58897;51.960;5.582;2023-08-01T01:43:20;99629.06;;;15.72;100.00
12987;BME280;58897;51.960;5.582;2023-08-01T01:45:47;99638.03;;;15.79;100.00
12987;BME280;58897;51.960;5.582;2023-08-01T01:48:13;99633.03;;;15.76;100.00
12987;BME280;58897;51.960;5.582;2023-08-01T01:50:40;99625.91;;;15.75;100.00
12987;BME280;58897;51.960;5.582;2023-08-01T01:53:06;99628.69;;;15.69;100.00
12987;BME280;58897;51.960;5.582;2023-08-01T01:55:33;99621.28;;;15.76;100.00
12987;BME280;58897;51.960;5.582;2023-08-01T01:58:01;99623.63;;;15.72;100.00
12987;BME280;58897;51.960;5.582;2023-08-01T02:00:27;99626.75;;;15.76;100.00
12987;BME280;58897;51.960;5.582;2023-08-01T02:02:54;99621.53;;;15.74;100.00
12987;BME280;58897;51.960;5.582;2023-08-01T02:05:21;99626.19;;;15.67;100.00
12987;BME280;58897;51.960;5.582;2023-08-01T02:07:47;99625.00;;;15.63;100.00
12987;BME280;58897;51.960;5.582;2023-08-01T02:10:14;99620.38;;;15.64;100.00
12987;BME280;58897;51.960;5.582;2023-08-01T02:12:41;99623.84;;;15.71;100.00
12987;BME280;58897;51.960;5.582;2023-08-01T02:15:08;99622.66;;;15.67;100.00
12987;BME280;58897;51.960;5.582;2023-08-01T02:17:34;99621.88;;;15.60;100.00
12987;BME280;58897;51.960;5.582;2023-08-01T02:20:01;99621.22;;;15.64;100.00
12987;BME280;58897;51.960;5.582;2023-08-01T02:22:28;99624.22;;;15.56;100.00
12987;BME280;58897;51.960;5.582;2023-08-01T02:24:54;99615.66;;;15.53;100.00
12987;BME280;58897;51.960;5.582;2023-08-01T02:27:21;99613.72;;;15.60;100.00
12987;BME280;58897;51.960;5.582;2023-08-01T02:29:48;99616.28;;;15.55;100.00
12987;BME280;58897;51.960;5.582;2023-08-01T02:32:17;99611.44;;;15.57;100.00
12987;BME280;58897;51.960;5.582;2023-08-01T02:34:44;99617.78;;;15.51;100.00
12987;BME280;58897;51.960;5.582;2023-08-01T02:37:10;99616.13;;;15.50;100.00
12987;BME280;58897;51.960;5.582;2023-08-01T02:39:37;99621.50;;;15.56;100.00
12987;BME280;58897;51.960;5.582;2023-08-01T02:42:04;99620.69;;;15.56;100.00
12987;BME280;58897;51.960;5.582;2023-08-01T02:44:30;99626.56;;;15.53;100.00
12987;BME280;58897;51.960;5.582;2023-08-01T02:46:57;99615.22;;;15.56;100.00
12987;BME280;58897;51.960;5.582;2023-08-01T02:49:24;99626.13;;;15.56;100.00
12987;BME280;58897;51.960;5.582;2023-08-01T02:51:50;99627.56;;;15.58;100.00
12987;BME280;58897;51.960;5.582;2023-08-01T02:54:17;99627.13;;;15.61;100.00
12987;BME280;58897;51.960;5.582;2023-08-01T02:56:44;99622.13;;;15.58;100.00
12987;BME280;58897;51.960;5.582;2023-08-01T02:59:10;99626.03;;;15.62;100.00
12987;BME280;58897;51.960;5.582;2023-08-01T03:01:38;99624.31;;;15.68;100.00
12987;BME280;58897;51.960;5.582;2023-08-01T03:04:06;99624.75;;;15.65;100.00
12987;BME280;58897;51.960;5.582;2023-08-01T03:06:33;99623.94;;;15.64;100.00
12987;BME280;58897;51.960;5.582;2023-08-01T03:09:00;99621.66;;;15.61;100.00
12987;BME280;58897;51.960;5.582;2023-08-01T03:11:27;99617.66;;;15.64;100.00
12987;BME280;58897;51.960;5.582;2023-08-01T03:13:54;99619.69;;;15.68;100.00
12987;BME280;58897;51.960;5.582;2023-08-01T03:16:21;99620.91;;;15.72;100.00
12987;BME280;58897;51.960;5.582;2023-08-01T03:18:48;99621.06;;;15.77;100.00
12987;BME280;58897;51.960;5.582;2023-08-01T03:21:15;99616.09;;;15.74;100.00
12987;BME280;58897;51.960;5.582;2023-08-01T03:23:42;99624.25;;;15.74;100.00
12987;BME280;58897;51.960;5.582;2023-08-01T03:26:09;99627.13;;;15.79;100.00
12987;BME280;58897;51.960;5.582;2023-08-01T03:28:35;99616.69;;;15.76;100.00
12987;BME280;58897;51.960;5.582;2023-08-01T03:31:02;99622.19;;;15.70;100.00
12987;BME280;58897;51.960;5.582;2023-08-01T03:33:29;99617.81;;;15.69;100.00
12987;BME280;58897;51.960;5.582;2023-08-01T03:35:56;99618.41;;;15.71;100.00
12987;BME280;58897;51.960;5.582;2023-08-01T03:38:22;99619.25;;;15.71;100.00
12987;BME280;58897;51.960;5.582;2023-08-01T03:40:49;99618.81;;;15.74;100.00
12987;BME280;58897;51.960;5.582;2023-08-01T03:43:16;99621.13;;;15.71;100.00
12987;BME280;58897;51.960;5.582;2023-08-01T03:45:43;99614.00;;;15.70;100.00
12987;BME280;58897;51.960;5.582;2023-08-01T03:48:09;99618.50;;;15.64;100.00
12987;BME280;58897;51.960;5.582;2023-08-01T03:50:36;99627.47;;;15.65;100.00
12987;BME280;58897;51.960;5.582;2023-08-01T03:53:02;99622.66;;;15.67;100.00
12987;BME280;58897;51.960;5.582;2023-08-01T03:55:29;99632.47;;;15.68;100.00
12987;BME280;58897;51.960;5.582;2023-08-01T03:57:56;99633.75;;;15.65;100.00
12987;BME280;58897;51.960;5.582;2023-08-01T04:00:23;99625.75;;;15.70;100.00
12987;BME280;58897;51.960;5.582;2023-08-01T04:02:50;99629.91;;;15.73;100.00
12987;BME280;58897;51.960;5.582;2023-08-01T04:05:17;99631.59;;;15.74;100.00
12987;BME280;58897;51.960;5.582;2023-08-01T04:07:44;99633.03;;;15.76;100.00
12987;BME280;58897;51.960;5.582;2023-08-01T04:10:10;99635.50;;;15.78;100.00
12987;BME280;58897;51.960;5.582;2023-08-01T04:12:37;99633.69;;;15.72;100.00
12987;BME280;58897;51.960;5.582;2023-08-01T04:15:07;99635.44;;;15.66;100.00
12987;BME280;58897;51.960;5.582;2023-08-01T04:17:34;99643.75;;;15.71;100.00
12987;BME280;58897;51.960;5.582;2023-08-01T04:20:01;99641.41;;;15.75;100.00
12987;BME280;58897;51.960;5.582;2023-08-01T04:22:27;99638.16;;;15.66;100.00
12987;BME280;58897;51.960;5.582;2023-08-01T04:24:54;99642.31;;;15.69;100.00
12987;BME280;58897;51.960;5.582;2023-08-01T04:27:21;99638.75;;;15.68;100.00
12987;BME280;58897;51.960;5.582;2023-08-01T04:29:48;99637.91;;;15.68;100.00
12987;BME280;58897;51.960;5.582;2023-08-01T04:32:14;99633.69;;;15.72;100.00
12987;BME280;58897;51.960;5.582;2023-08-01T04:34:44;99641.25;;;15.70;100.00
12987;BME280;58897;51.960;5.582;2023-08-01T04:37:11;99633.31;;;15.68;100.00
12987;BME280;58897;51.960;5.582;2023-08-01T04:39:37;99644.59;;;15.72;100.00
12987;BME280;58897;51.960;5.582;2023-08-01T04:42:04;99629.47;;;15.76;100.00
12987;BME280;58897;51.960;5.582;2023-08-01T04:44:31;99627.97;;;15.80;100.00
12987;BME280;58897;51.960;5.582;2023-08-01T04:46:58;99639.66;;;15.80;100.00
12987;BME280;58897;51.960;5.582;2023-08-01T04:49:25;99631.63;;;15.67;100.00
12987;BME280;58897;51.960;5.582;2023-08-01T04:51:52;99628.41;;;15.77;100.00
12987;BME280;58897;51.960;5.582;2023-08-01T04:54:18;99630.28;;;15.76;100.00
12987;BME280;58897;51.960;5.582;2023-08-01T04:56:45;99628.41;;;15.77;100.00
12987;BME280;58897;51.960;5.582;2023-08-01T04:59:11;99633.16;;;15.81;100.00
12987;BME280;58897;51.960;5.582;2023-08-01T05:01:38;99625.00;;;15.81;100.00
12987;BME280;58897;51.960;5.582;2023-08-01T05:04:05;99625.41;;;15.85;100.00
12987;BME280;58897;51.960;5.582;2023-08-01T05:06:32;99617.53;;;15.77;100.00
12987;BME280;58897;51.960;5.582;2023-08-01T05:09:00;99620.75;;;15.85;100.00
12987;BME280;58897;51.960;5.582;2023-08-01T05:11:27;99623.13;;;15.82;100.00
12987;BME280;58897;51.960;5.582;2023-08-01T05:13:53;99626.34;;;15.90;100.00
12987;BME280;58897;51.960;5.582;2023-08-01T05:16:20;99631.75;;;15.97;100.00
12987;BME280;58897;51.960;5.582;2023-08-01T05:18:46;99630.91;;;15.96;100.00
12987;BME280;58897;51.960;5.582;2023-08-01T05:21:13;99622.66;;;16.03;100.00
12987;BME280;58897;51.960;5.582;2023-08-01T05:23:42;99627.28;;;16.02;100.00
12987;BME280;58897;51.960;5.582;2023-08-01T05:26:09;99633.56;;;16.03;100.00
12987;BME280;58897;51.960;5.582;2023-08-01T05:28:35;99627.28;;;16.02;100.00
12987;BME280;58897;51.960;5.582;2023-08-01T05:31:03;99637.25;;;16.08;100.00
12987;BME280;58897;51.960;5.582;2023-08-01T05:33:30;99626.88;;;16.17;100.00
12987;BME280;58897;51.960;5.582;2023-08-01T05:35:56;99632.75;;;16.32;100.00
12987;BME280;58897;51.960;5.582;2023-08-01T05:38:23;99625.38;;;16.21;100.00
12987;BME280;58897;51.960;5.582;2023-08-01T05:40:50;99629.00;;;16.15;100.00
12987;BME280;58897;51.960;5.582;2023-08-01T05:43:16;99634.16;;;16.23;100.00
12987;BME280;58897;51.960;5.582;2023-08-01T05:45:43;99631.78;;;16.45;100.00
12987;BME280;58897;51.960;5.582;2023-08-01T05:48:10;99627.75;;;16.47;100.00
12987;BME280;58897;51.960;5.582;2023-08-01T05:50:37;99633.97;;;16.36;100.00
12987;BME280;58897;51.960;5.582;2023-08-01T05:53:04;99631.25;;;16.36;100.00
12987;BME280;58897;51.960;5.582;2023-08-01T05:55:31;99634.19;;;16.35;100.00
12987;BME280;58897;51.960;5.582;2023-08-01T05:58:00;99641.78;;;16.33;100.00
12987;BME280;58897;51.960;5.582;2023-08-01T06:00:27;99642.47;;;16.28;100.00
12987;BME280;58897;51.960;5.582;2023-08-01T06:02:54;99641.78;;;16.33;100.00
12987;BME280;58897;51.960;5.582;2023-08-01T06:05:21;99643.88;;;16.49;100.00
12987;BME280;58897;51.960;5.582;2023-08-01T06:07:48;99649.31;;;16.49;100.00
12987;BME280;58897;51.960;5.582;2023-08-01T06:10:14;99653.06;;;16.54;100.00
12987;BME280;58897;51.960;5.582;2023-08-01T06:12:41;99645.41;;;16.63;100.00
12987;BME280;58897;51.960;5.582;2023-08-01T06:15:08;99637.50;;;16.73;100.00
12987;BME280;58897;51.960;5.582;2023-08-01T06:17:35;99639.75;;;16.76;100.00
12987;BME280;58897;51.960;5.582;2023-08-01T06:20:02;99653.34;;;16.64;100.00
12987;BME280;58897;51.960;5.582;2023-08-01T06:22:31;99646.13;;;16.70;100.00
12987;BME280;58897;51.960;5.582;2023-08-01T06:24:57;99656.59;;;16.73;100.00
12987;BME280;58897;51.960;5.582;2023-08-01T06:27:24;99648.41;;;16.85;100.00
12987;BME280;58897;51.960;5.582;2023-08-01T06:29:51;99655.22;;;16.94;100.00
12987;BME280;58897;51.960;5.582;2023-08-01T06:32:18;99648.47;;;16.96;100.00
12987;BME280;58897;51.960;5.582;2023-08-01T06:34:45;99634.78;;;16.85;100.00
12987;BME280;58897;51.960;5.582;2023-08-01T06:37:12;99635.81;;;16.72;100.00
12987;BME280;58897;51.960;5.582;2023-08-01T06:39:38;99641.78;;;16.81;100.00
12987;BME280;58897;51.960;5.582;2023-08-01T06:42:06;99652.03;;;16.97;100.00
12987;BME280;58897;51.960;5.582;2023-08-01T06:44:33;99654.91;;;17.02;100.00
12987;BME280;58897;51.960;5.582;2023-08-01T06:46:59;99663.91;;;17.02;100.00
12987;BME280;58897;51.960;5.582;2023-08-01T06:49:26;99644.00;;;17.13;100.00
12987;BME280;58897;51.960;5.582;2023-08-01T06:51:53;99646.94;;;17.00;100.00
12987;BME280;58897;51.960;5.582;2023-08-01T06:54:19;99646.03;;;17.18;100.00
12987;BME280;58897;51.960;5.582;2023-08-01T06:56:46;99638.00;;;17.46;100.00
12987;BME280;58897;51.960;5.582;2023-08-01T06:59:16;99643.84;;;17.96;100.00
12987;BME280;58897;51.960;5.582;2023-08-01T07:01:43;99622.78;;;18.08;100.00
12987;BME280;58897;51.960;5.582;2023-08-01T07:04:11;99618.19;;;18.37;100.00
12987;BME280;58897;51.960;5.582;2023-08-01T07:06:37;99617.25;;;18.31;100.00
12987;BME280;58897;51.960;5.582;2023-08-01T07:09:05;99615.34;;;18.72;100.00
12987;BME280;58897;51.960;5.582;2023-08-01T07:11:31;99611.72;;;18.55;100.00
12987;BME280;58897;51.960;5.582;2023-08-01T07:13:58;99604.38;;;18.04;100.00
12987;BME280;58897;51.960;5.582;2023-08-01T07:16:25;99601.22;;;18.23;100.00
12987;BME280;58897;51.960;5.582;2023-08-01T07:18:52;99595.88;;;18.57;100.00
12987;BME280;58897;51.960;5.582;2023-08-01T07:21:19;99599.97;;;18.42;100.00
12987;BME280;58897;51.960;5.582;2023-08-01T07:23:46;99607.59;;;18.40;100.00
12987;BME280;58897;51.960;5.582;2023-08-01T07:26:14;99588.69;;;19.12;100.00
12987;BME280;58897;51.960;5.582;2023-08-01T07:28:41;99599.72;;;18.72;100.00
12987;BME280;58897;51.960;5.582;2023-08-01T07:31:08;99578.31;;;19.14;100.00
12987;BME280;58897;51.960;5.582;2023-08-01T07:33:35;99570.94;;;19.15;100.00
12987;BME280;58897;51.960;5.582;2023-08-01T07:36:02;99577.13;;;19.27;100.00
12987;BME280;58897;51.960;5.582;2023-08-01T07:38:29;99573.31;;;19.61;100.00
12987;BME280;58897;51.960;5.582;2023-08-01T07:41:02;99570.03;;;19.81;100.00
12987;BME280;58897;51.960;5.582;2023-08-01T07:43:29;99560.94;;;20.67;100.00
12987;BME280;58897;51.960;5.582;2023-08-01T07:45:59;99570.81;;;20.19;100.00
12987;BME280;58897;51.960;5.582;2023-08-01T07:48:26;99571.09;;;19.25;100.00
12987;BME280;58897;51.960;5.582;2023-08-01T07:50:53;99569.41;;;18.90;100.00
12987;BME280;58897;51.960;5.582;2023-08-01T07:53:21;99580.00;;;18.14;100.00
12987;BME280;58897;51.960;5.582;2023-08-01T07:55:47;99597.13;;;17.98;100.00
12987;BME280;58897;51.960;5.582;2023-08-01T07:58:15;99600.25;;;17.89;100.00
12987;BME280;58897;51.960;5.582;2023-08-01T08:00:42;99612.03;;;18.30;100.00
12987;BME280;58897;51.960;5.582;2023-08-01T08:03:08;99598.00;;;18.83;100.00
12987;BME280;58897;51.960;5.582;2023-08-01T08:05:35;99587.25;;;19.59;100.00
12987;BME280;58897;51.960;5.582;2023-08-01T08:08:06;99579.03;;;19.59;100.00
12987;BME280;58897;51.960;5.582;2023-08-01T08:10:33;99595.59;;;19.86;100.00
12987;BME280;58897;51.960;5.582;2023-08-01T08:12:59;99585.31;;;19.38;100.00
12987;BME280;58897;51.960;5.582;2023-08-01T08:15:26;99583.00;;;19.68;100.00
12987;BME280;58897;51.960;5.582;2023-08-01T08:17:53;99596.47;;;19.03;100.00
12987;BME280;58897;51.960;5.582;2023-08-01T08:20:20;99594.88;;;19.24;100.00
12987;BME280;58897;51.960;5.582;2023-08-01T08:22:47;99604.84;;;18.52;100.00
12987;BME280;58897;51.960;5.582;2023-08-01T08:25:13;99593.69;;;20.78;100.00
12987;BME280;58897;51.960;5.582;2023-08-01T08:27:43;99587.47;;;21.51;100.00
12987;BME280;58897;51.960;5.582;2023-08-01T08:30:25;99577.44;;;20.99;100.00
12987;BME280;58897;51.960;5.582;2023-08-01T08:32:57;99583.06;;;20.87;100.00
12987;BME280;58897;51.960;5.582;2023-08-01T08:35:38;99578.94;;;20.84;100.00
12987;BME280;58897;51.960;5.582;2023-08-01T08:38:16;99587.75;;;20.16;100.00
12987;BME280;58897;51.960;5.582;2023-08-01T08:40:52;99593.22;;;20.86;100.00
12987;BME280;58897;51.960;5.582;2023-08-01T08:43:19;99576.50;;;21.57;100.00
12987;BME280;58897;51.960;5.582;2023-08-01T08:46:00;99573.44;;;21.11;100.00
12987;BME280;58897;51.960;5.582;2023-08-01T08:48:28;99574.69;;;21.72;100.00
12987;BME280;58897;51.960;5.582;2023-08-01T08:51:00;99591.66;;;21.59;100.00
12987;BME280;58897;51.960;5.582;2023-08-01T08:53:27;99582.72;;;22.31;100.00
12987;BME280;58897;51.960;5.582;2023-08-01T08:58:56;99587.06;;;21.33;100.00
12987;BME280;58897;51.960;5.582;2023-08-01T09:01:23;99592.56;;;20.74;100.00
12987;BME280;58897;51.960;5.582;2023-08-01T09:03:50;99585.38;;;22.10;100.00
12987;BME280;58897;51.960;5.582;2023-08-01T09:06:24;99600.78;;;21.70;100.00
12987;BME280;58897;51.960;5.582;2023-08-01T09:09:11;99586.50;;;21.68;100.00
12987;BME280;58897;51.960;5.582;2023-08-01T09:12:11;99595.22;;;21.60;100.00
12987;BME280;58897;51.960;5.582;2023-08-01T09:14:41;99576.81;;;21.60;100.00
12987;BME280;58897;51.960;5.582;2023-08-01T09:17:12;99588.09;;;21.22;100.00
12987;BME280;58897;51.960;5.582;2023-08-01T09:19:54;99594.94;;;21.19;100.00
12987;BME280;58897;51.960;5.582;2023-08-01T09:22:27;99606.56;;;21.05;100.00
12987;BME280;58897;51.960;5.582;2023-08-01T09:24:54;99603.06;;;20.56;100.00
12987;BME280;58897;51.960;5.582;2023-08-01T09:27:34;99602.13;;;20.99;100.00
12987;BME280;58897;51.960;5.582;2023-08-01T09:30:13;99600.09;;;21.47;100.00
12987;BME280;58897;51.960;5.582;2023-08-01T09:32:55;99604.34;;;21.65;100.00
12987;BME280;58897;51.960;5.582;2023-08-01T09:35:25;99608.63;;;21.14;100.00
12987;BME280;58897;51.960;5.582;2023-08-01T09:37:52;99615.06;;;21.30;100.00
12987;BME280;58897;51.960;5.582;2023-08-01T09:40:19;99618.25;;;21.53;100.00
12987;BME280;58897;51.960;5.582;2023-08-01T09:42:49;99614.47;;;21.28;100.00
12987;BME280;58897;51.960;5.582;2023-08-01T09:45:22;99625.91;;;21.46;100.00
12987;BME280;58897;51.960;5.582;2023-08-01T09:47:51;99629.97;;;21.07;100.00
12987;BME280;58897;51.960;5.582;2023-08-01T09:50:24;99629.22;;;20.63;100.00
12987;BME280;58897;51.960;5.582;2023-08-01T09:52:53;99629.69;;;21.77;100.00
12987;BME280;58897;51.960;5.582;2023-08-01T09:55:31;99631.25;;;21.63;100.00
12987;BME280;58897;51.960;5.582;2023-08-01T09:58:05;99639.16;;;20.69;100.00
12987;BME280;58897;51.960;5.582;2023-08-01T10:00:34;99627.13;;;22.02;100.00
12987;BME280;58897;51.960;5.582;2023-08-01T10:03:04;99629.31;;;22.57;100.00
12987;BME280;58897;51.960;5.582;2023-08-01T10:05:34;99648.75;;;23.78;100.00
12987;BME280;58897;51.960;5.582;2023-08-01T10:08:02;99649.91;;;22.50;100.00
12987;BME280;58897;51.960;5.582;2023-08-01T10:10:29;99650.06;;;21.44;100.00
12987;BME280;58897;51.960;5.582;2023-08-01T10:13:02;99649.75;;;21.09;100.00
12987;BME280;58897;51.960;5.582;2023-08-01T10:15:31;99652.78;;;22.75;100.00
12987;BME280;58897;51.960;5.582;2023-08-01T10:17:58;99673.44;;;22.83;100.00
12987;BME280;58897;51.960;5.582;2023-08-01T10:20:25;99654.34;;;22.61;100.00
12987;BME280;58897;51.960;5.582;2023-08-01T10:22:54;99639.31;;;24.10;100.00
12987;BME280;58897;51.960;5.582;2023-08-01T10:25:25;99636.19;;;24.41;100.00
12987;BME280;58897;51.960;5.582;2023-08-01T10:28:02;99656.50;;;23.51;100.00
12987;BME280;58897;51.960;5.582;2023-08-01T10:30:41;99649.22;;;22.18;100.00
12987;BME280;58897;51.960;5.582;2023-08-01T10:33:08;99642.31;;;22.15;100.00
12987;BME280;58897;51.960;5.582;2023-08-01T10:35:42;99656.44;;;23.31;100.00
12987;BME280;58897;51.960;5.582;2023-08-01T10:38:10;99645.72;;;23.75;100.00
12987;BME280;58897;51.960;5.582;2023-08-01T10:40:40;99667.41;;;22.91;100.00
12987;BME280;58897;51.960;5.582;2023-08-01T10:43:24;99655.91;;;23.84;100.00
12987;BME280;58897;51.960;5.582;2023-08-01T10:46:02;99664.19;;;23.79;100.00
12987;BME280;58897;51.960;5.582;2023-08-01T10:48:29;99663.59;;;24.13;100.00
12987;BME280;58897;51.960;5.582;2023-08-01T10:51:05;99666.09;;;24.14;100.00
12987;BME280;58897;51.960;5.582;2023-08-01T10:53:39;99671.88;;;23.98;100.00
12987;BME280;58897;51.960;5.582;2023-08-01T10:56:15;99665.81;;;23.25;100.00
12987;BME280;58897;51.960;5.582;2023-08-01T10:58:42;99667.22;;;24.08;100.00
12987;BME280;58897;51.960;5.582;2023-08-01T11:01:12;99658.56;;;24.99;100.00
12987;BME280;58897;51.960;5.582;2023-08-01T11:03:39;99659.31;;;24.55;100.00
12987;BME280;58897;51.960;5.582;2023-08-01T11:06:07;99670.75;;;23.18;100.00
12987;BME280;58897;51.960;5.582;2023-08-01T11:08:38;99670.25;;;22.44;100.00
12987;BME280;58897;51.960;5.582;2023-08-01T11:11:39;99669.00;;;22.14;100.00
12987;BME280;58897;51.960;5.582;2023-08-01T11:15:09;99683.69;;;21.57;100.00
12987;BME280;58897;51.960;5.582;2023-08-01T11:17:50;99682.34;;;21.64;100.00
12987;BME280;58897;51.960;5.582;2023-08-01T11:20:25;99684.03;;;21.33;100.00
12987;BME280;58897;51.960;5.582;2023-08-01T11:22:56;99687.81;;;22.38;100.00
12987;BME280;58897;51.960;5.582;2023-08-01T11:25:43;99678.25;;;23.78;100.00
12987;BME280;58897;51.960;5.582;2023-08-01T11:28:51;99687.16;;;22.67;100.00
12987;BME280;58897;51.960;5.582;2023-08-01T11:31:18;99682.31;;;23.05;100.00
12987;BME280;58897;51.960;5.582;2023-08-01T11:33:55;99688.16;;;21.99;100.00
12987;BME280;58897;51.960;5.582;2023-08-01T11:36:25;99689.75;;;21.27;100.00
12987;BME280;58897;51.960;5.582;2023-08-01T11:38:59;99698.00;;;21.95;100.00
12987;BME280;58897;51.960;5.582;2023-08-01T11:41:27;99691.16;;;24.08;100.00
12987;BME280;58897;51.960;5.582;2023-08-01T11:43:55;99689.78;;;24.25;100.00
12987;BME280;58897;51.960;5.582;2023-08-01T11:46:22;99691.72;;;23.29;100.00
12987;BME280;58897;51.960;5.582;2023-08-01T11:48:52;99697.97;;;24.55;100.00
12987;BME280;58897;51.960;5.582;2023-08-01T11:51:19;99706.63;;;23.83;100.00
12987;BME280;58897;51.960;5.582;2023-08-01T11:53:46;99695.22;;;24.55;100.00
12987;BME280;58897;51.960;5.582;2023-08-01T11:56:22;99705.81;;;23.73;100.00
12987;BME280;58897;51.960;5.582;2023-08-01T11:58:52;99706.63;;;22.61;100.00
12987;BME280;58897;51.960;5.582;2023-08-01T12:01:19;99713.63;;;22.27;100.00
12987;BME280;58897;51.960;5.582;2023-08-01T12:03:50;99720.28;;;21.94;100.00
12987;BME280;58897;51.960;5.582;2023-08-01T12:06:18;99716.00;;;21.76;100.00
12987;BME280;58897;51.960;5.582;2023-08-01T12:08:47;99723.09;;;21.40;100.00
12987;BME280;58897;51.960;5.582;2023-08-01T12:11:31;99718.38;;;21.94;100.00
12987;BME280;58897;51.960;5.582;2023-08-01T12:16:30;99724.22;;;21.71;100.00
12987;BME280;58897;51.960;5.582;2023-08-01T12:18:57;99738.53;;;21.46;100.00
12987;BME280;58897;51.960;5.582;2023-08-01T12:21:28;99727.97;;;21.33;100.00
12987;BME280;58897;51.960;5.582;2023-08-01T12:23:55;99741.03;;;21.21;100.00
12987;BME280;58897;51.960;5.582;2023-08-01T12:26:22;99735.22;;;21.18;100.00
12987;BME280;58897;51.960;5.582;2023-08-01T12:29:13;99744.25;;;20.91;100.00
12987;BME280;58897;51.960;5.582;2023-08-01T12:31:43;99739.97;;;21.01;100.00
12987;BME280;58897;51.960;5.582;2023-08-01T12:34:19;99748.78;;;20.81;100.00
12987;BME280;58897;51.960;5.582;2023-08-01T12:36:48;99753.00;;;20.67;100.00
12987;BME280;58897;51.960;5.582;2023-08-01T12:39:15;99756.38;;;20.74;100.00
12987;BME280;58897;51.960;5.582;2023-08-01T12:41:41;99757.47;;;20.51;100.00
12987;BME280;58897;51.960;5.582;2023-08-01T12:44:08;99753.59;;;20.90;100.00
12987;BME280;58897;51.960;5.582;2023-08-01T12:46:35;99753.84;;;21.11;100.00
12987;BME280;58897;51.960;5.582;2023-08-01T12:49:01;99741.88;;;22.12;100.00
12987;BME280;58897;51.960;5.582;2023-08-01T12:51:35;99742.00;;;22.89;100.00
12987;BME280;58897;51.960;5.582;2023-08-01T12:54:05;99738.94;;;24.08;100.00
12987;BME280;58897;51.960;5.582;2023-08-01T12:56:32;99741.97;;;22.74;100.00
12987;BME280;58897;51.960;5.582;2023-08-01T12:58:59;99741.44;;;22.30;100.00
12987;BME280;58897;51.960;5.582;2023-08-01T13:01:26;99737.84;;;22.30;100.00
12987;BME280;58897;51.960;5.582;2023-08-01T13:03:53;99738.00;;;22.08;100.00